createdAt,value
2017-07-14T00:00:03.221Z,0
2017-07-14T00:05:02.899Z,0
2017-07-14T00:10:03.413Z,0
2017-07-14T00:15:02.720Z,0
2017-07-14T00:20:03.210Z,0
2017-07-14T00:25:02.604Z,0
2017-07-14T00:30:03.145Z,0
2017-07-14T00:35:02.738Z,0
2017-07-14T00:40:03.372Z,0
2017-07-14T00:45:02.626Z,0
2017-07-14T00:50:03.231Z,0
2017-07-14T00:55:02.673Z,0
2017-07-14T01:00:03.132Z,0
2017-07-14T01:05:02.696Z,0
2017-07-14T01:10:03.183Z,0
2017-07-14T01:15:02.627Z,0
2017-07-14T01:20:03.046Z,0
2017-07-14T01:25:03.438Z,0
2017-07-14T01:30:02.837Z,0
2017-07-14T01:35:03.293Z,0
2017-07-14T01:40:02.725Z,0
2017-07-14T01:45:03.194Z,0
2017-07-14T01:50:02.827Z,0
2017-07-14T01:55:03.382Z,0
2017-07-14T02:00:02.793Z,0
2017-07-14T02:05:03.072Z,0
2017-07-14T02:10:03.616Z,0
2017-07-14T02:15:03.005Z,0
2017-07-14T02:20:03.593Z,0
2017-07-14T02:25:03.042Z,0
2017-07-14T02:30:02.485Z,0
2017-07-14T02:35:03.161Z,0
2017-07-14T02:40:02.868Z,0
2017-07-14T02:45:03.493Z,0
2017-07-14T02:50:02.775Z,0
2017-07-14T02:55:03.093Z,0
2017-07-14T03:00:03.520Z,0
2017-07-14T03:05:02.792Z,0
2017-07-14T03:10:03.277Z,0
2017-07-14T03:15:02.646Z,0
2017-07-14T03:20:03.247Z,0
2017-07-14T03:25:02.684Z,0
2017-07-14T03:30:03.106Z,0
2017-07-14T03:35:02.648Z,0
2017-07-14T03:40:03.348Z,0
2017-07-14T03:45:02.633Z,0
2017-07-14T03:50:03.149Z,0
2017-07-14T03:55:02.741Z,0
2017-07-14T04:00:03.498Z,0
2017-07-14T04:05:02.846Z,0
2017-07-14T04:10:03.461Z,0
2017-07-14T04:15:02.774Z,0
2017-07-14T04:20:03.277Z,0
2017-07-14T04:25:02.702Z,0
2017-07-14T04:30:03.217Z,0
2017-07-14T04:35:02.659Z,0
2017-07-14T04:40:03.325Z,0
2017-07-14T04:45:02.616Z,0
2017-07-14T04:50:03.163Z,0
2017-07-14T04:55:02.640Z,0
2017-07-14T05:00:03.362Z,0
2017-07-14T05:05:02.874Z,0
2017-07-14T05:10:03.502Z,0
2017-07-14T05:15:02.822Z,0
2017-07-14T05:20:03.310Z,0
2017-07-14T05:25:02.590Z,0
2017-07-14T05:30:03.015Z,0
2017-07-14T05:35:02.811Z,0
2017-07-14T05:40:02.901Z,0
2017-07-14T05:45:03.002Z,0
2017-07-14T05:50:03.242Z,0
2017-07-14T05:55:03.421Z,0
2017-07-14T06:00:03.556Z,0
2017-07-14T06:05:03.646Z,0
2017-07-14T06:10:03.707Z,0
2017-07-14T06:15:02.583Z,0
2017-07-14T06:20:03.706Z,3
2017-07-14T06:25:02.625Z,1
2017-07-14T06:30:02.806Z,2
2017-07-14T06:35:03.092Z,2
2017-07-14T06:40:03.053Z,0
2017-07-14T06:45:03.329Z,2
2017-07-14T06:50:03.583Z,2
2017-07-14T06:55:02.648Z,3
2017-07-14T07:00:02.763Z,3
2017-07-14T07:05:02.984Z,6
2017-07-14T07:10:03.091Z,4
2017-07-14T07:15:03.371Z,2
2017-07-14T07:20:03.528Z,6
2017-07-14T07:25:03.670Z,5
2017-07-14T07:30:03.704Z,2
2017-07-14T07:35:02.730Z,6
2017-07-14T07:40:02.876Z,4
2017-07-14T07:45:03.292Z,5
2017-07-14T07:50:03.457Z,3
2017-07-14T07:55:03.659Z,6
2017-07-14T08:00:03.805Z,3
2017-07-14T08:05:03.072Z,5
2017-07-14T08:10:03.553Z,3
2017-07-14T08:15:03.566Z,5
2017-07-14T08:20:03.732Z,6
2017-07-14T08:25:03.059Z,3
2017-07-14T08:30:03.100Z,3
2017-07-14T08:35:02.860Z,3
2017-07-14T08:40:03.388Z,4
2017-07-14T08:45:02.836Z,3
2017-07-14T08:50:03.341Z,2
2017-07-14T08:55:02.640Z,4
2017-07-14T09:00:03.222Z,3
2017-07-14T09:05:02.975Z,2
2017-07-14T09:10:02.785Z,5
2017-07-14T09:15:03.258Z,1
2017-07-14T09:20:02.604Z,2
2017-07-14T09:25:03.245Z,2
2017-07-14T09:30:02.771Z,3
2017-07-14T09:35:03.422Z,3
2017-07-14T09:40:02.729Z,3
2017-07-14T09:45:03.215Z,4
2017-07-14T09:50:02.819Z,3
2017-07-14T09:55:03.429Z,3
2017-07-14T10:00:03.021Z,2
2017-07-14T10:05:02.491Z,2
2017-07-14T10:10:03.106Z,0
2017-07-14T10:15:02.645Z,2
2017-07-14T10:20:03.152Z,0
2017-07-14T10:25:02.648Z,0
2017-07-14T10:30:03.120Z,2
2017-07-14T10:35:02.599Z,0
2017-07-14T10:40:03.254Z,1
2017-07-14T10:45:02.864Z,0
2017-07-14T10:50:03.342Z,2
2017-07-14T10:55:02.783Z,2
2017-07-14T11:00:03.243Z,1
2017-07-14T11:05:02.864Z,1
2017-07-14T11:10:03.477Z,2
2017-07-14T11:15:02.938Z,3
2017-07-14T11:20:02.508Z,9
2017-07-14T11:25:03.104Z,9
2017-07-14T11:30:03.585Z,3
2017-07-14T11:35:03.147Z,3
2017-07-14T11:40:02.661Z,3
2017-07-14T11:45:03.418Z,5
2017-07-14T11:50:02.839Z,3
2017-07-14T11:55:03.302Z,4
2017-07-14T12:00:02.800Z,4
2017-07-14T12:05:03.439Z,5
2017-07-14T12:10:02.887Z,5
2017-07-14T12:15:03.368Z,4
2017-07-14T12:20:03.023Z,3
2017-07-14T12:25:02.685Z,3
2017-07-14T12:30:03.303Z,2
2017-07-14T12:35:02.918Z,2
2017-07-14T12:40:03.568Z,1
2017-07-14T12:45:03.044Z,0
2017-07-14T12:50:02.702Z,0
2017-07-14T12:55:03.201Z,7
2017-07-14T13:00:02.819Z,7
2017-07-14T13:05:03.505Z,4
2017-07-14T13:10:02.948Z,6
2017-07-14T13:15:02.530Z,7
2017-07-14T13:20:03.352Z,3
2017-07-14T13:25:02.818Z,10
2017-07-14T13:30:03.431Z,9
2017-07-14T13:35:02.840Z,7
2017-07-14T13:40:03.530Z,7
2017-07-14T13:45:02.936Z,6
2017-07-14T13:50:03.619Z,12
2017-07-14T13:55:03.025Z,8
2017-07-14T14:00:02.614Z,10
2017-07-14T14:05:03.217Z,4
2017-07-14T14:10:02.771Z,5
2017-07-14T14:15:03.238Z,4
2017-07-14T14:20:02.565Z,5
2017-07-14T14:25:03.070Z,4
2017-07-14T14:30:02.628Z,6
2017-07-14T14:35:03.340Z,6
2017-07-14T14:40:02.835Z,4
2017-07-14T14:45:03.452Z,6
2017-07-14T14:50:02.729Z,7
2017-07-14T14:55:03.342Z,7
2017-07-14T15:00:02.594Z,3
2017-07-14T15:05:03.240Z,3
2017-07-14T15:10:02.752Z,2
2017-07-14T15:15:03.216Z,2
2017-07-14T15:20:02.787Z,5
2017-07-14T15:25:03.320Z,1
2017-07-14T15:30:02.966Z,2
2017-07-14T15:35:02.589Z,2
2017-07-14T15:40:03.182Z,1
2017-07-14T15:45:02.789Z,3
2017-07-14T15:50:03.272Z,1
2017-07-14T15:55:02.536Z,4
2017-07-14T16:00:03.093Z,2
2017-07-14T16:05:02.720Z,3
2017-07-14T16:10:03.321Z,3
2017-07-14T16:15:02.940Z,4
2017-07-14T16:20:03.526Z,3
2017-07-14T16:25:02.973Z,5
2017-07-14T16:30:02.794Z,6
2017-07-14T16:35:03.302Z,8
2017-07-14T16:40:02.626Z,3
2017-07-14T16:45:03.053Z,9
2017-07-14T16:50:02.691Z,7
2017-07-14T16:55:03.209Z,8
2017-07-14T17:00:02.699Z,8
2017-07-14T17:05:03.292Z,7
2017-07-14T17:10:02.742Z,8
2017-07-14T17:15:03.306Z,6
2017-07-14T17:20:02.754Z,5
2017-07-14T17:25:03.312Z,4
2017-07-14T17:30:02.677Z,5
2017-07-14T17:35:03.220Z,4
2017-07-14T17:40:02.707Z,2
2017-07-14T17:45:03.365Z,6
2017-07-14T17:50:02.877Z,4
2017-07-14T17:55:03.320Z,7
2017-07-14T18:00:02.715Z,5
2017-07-14T18:05:03.296Z,3
2017-07-14T18:10:02.628Z,2
2017-07-14T18:15:03.289Z,4
2017-07-14T18:20:02.807Z,2
2017-07-14T18:25:03.261Z,7
2017-07-14T18:30:02.696Z,2
2017-07-14T18:35:03.287Z,4
2017-07-14T18:40:02.633Z,2
2017-07-14T18:45:03.335Z,4
2017-07-14T18:50:02.652Z,3
2017-07-14T18:55:03.192Z,1
2017-07-14T19:00:02.741Z,1
2017-07-14T19:05:03.234Z,3
2017-07-14T19:10:02.828Z,2
2017-07-14T19:15:03.279Z,5
2017-07-14T19:20:02.843Z,2
2017-07-14T19:25:03.510Z,4
2017-07-14T19:30:02.858Z,5
2017-07-14T19:35:03.523Z,2
2017-07-14T19:40:02.846Z,2
2017-07-14T19:45:03.335Z,4
2017-07-14T19:50:02.605Z,0
2017-07-14T19:55:03.228Z,3
2017-07-14T20:00:02.884Z,2
2017-07-14T20:05:03.342Z,2
2017-07-14T20:10:02.871Z,3
2017-07-14T20:15:03.488Z,3
2017-07-14T20:20:02.793Z,4
2017-07-14T20:25:03.264Z,4
2017-07-14T20:30:02.554Z,6
2017-07-14T20:35:03.059Z,5
2017-07-14T20:40:03.454Z,2
2017-07-14T20:45:02.807Z,2
2017-07-14T20:50:03.401Z,0
2017-07-14T20:55:02.669Z,0
2017-07-14T21:00:03.321Z,1
2017-07-14T21:05:02.579Z,2
2017-07-14T21:10:03.063Z,3
2017-07-14T21:15:03.494Z,2
2017-07-14T21:20:02.814Z,0
2017-07-14T21:25:03.376Z,2
2017-07-14T21:30:02.807Z,2
2017-07-14T21:35:03.248Z,1
2017-07-14T21:40:02.556Z,3
2017-07-14T21:45:03.146Z,3
2017-07-14T21:50:02.688Z,2
2017-07-14T21:55:03.225Z,1
2017-07-14T22:00:02.784Z,5
2017-07-14T22:05:03.366Z,0
2017-07-14T22:10:02.861Z,2
2017-07-14T22:15:03.341Z,3
2017-07-14T22:20:02.803Z,2
2017-07-14T22:25:03.314Z,3
2017-07-14T22:30:02.817Z,2
2017-07-14T22:35:03.419Z,2
2017-07-14T22:40:02.728Z,3
2017-07-14T22:45:03.328Z,3
2017-07-14T22:50:02.762Z,3
2017-07-14T22:55:03.228Z,2
2017-07-14T23:00:02.888Z,2
2017-07-14T23:05:03.301Z,4
2017-07-14T23:10:02.661Z,3
2017-07-14T23:15:03.062Z,4
2017-07-14T23:20:03.558Z,3
2017-07-14T23:25:02.865Z,5
2017-07-14T23:30:03.317Z,2
2017-07-14T23:35:02.739Z,3
2017-07-14T23:40:03.452Z,3
2017-07-14T23:45:02.874Z,5
2017-07-14T23:50:03.362Z,2
2017-07-14T23:55:02.804Z,5
